createdAt,value
2018-04-25T00:00:18.991Z,95.10
2018-04-25T00:02:45.992Z,95.20
2018-04-25T00:05:12.261Z,95.20
2018-04-25T00:07:38.534Z,95.30
2018-04-25T00:10:04.792Z,95.30
2018-04-25T00:12:31.567Z,95.30
2018-04-25T00:14:57.803Z,95.30
2018-04-25T00:17:24.060Z,95.30
2018-04-25T00:19:50.317Z,95.30
2018-04-25T00:22:16.569Z,95.40
2018-04-25T00:24:42.789Z,95.40
2018-04-25T00:27:09.037Z,95.30
2018-04-25T00:29:35.275Z,95.40
2018-04-25T00:32:01.514Z,95.60
2018-04-25T00:34:29.231Z,95.70
2018-04-25T00:36:55.496Z,95.90
2018-04-25T00:39:22.913Z,96.00
2018-04-25T00:41:49.307Z,96.00
2018-04-25T00:44:15.565Z,96.00
2018-04-25T00:46:41.815Z,96.10
2018-04-25T00:49:08.095Z,96.00
2018-04-25T00:51:35.108Z,96.00
2018-04-25T00:54:01.351Z,96.00
2018-04-25T00:56:27.623Z,95.90
2018-04-25T00:58:53.921Z,95.90
2018-04-25T01:01:20.911Z,95.90
2018-04-25T01:03:47.215Z,96.00
2018-04-25T01:06:13.489Z,96.00
2018-04-25T01:08:39.772Z,96.00
2018-04-25T01:11:06.081Z,95.80
2018-04-25T01:13:32.347Z,95.80
2018-04-25T01:15:59.350Z,95.60
2018-04-25T01:18:25.614Z,95.50
2018-04-25T01:20:51.878Z,95.50
2018-04-25T01:23:18.963Z,95.30
2018-04-25T01:25:45.279Z,95.30
2018-04-25T01:28:27.382Z,95.30
2018-04-25T01:30:59.558Z,95.00
2018-04-25T01:33:26.602Z,95.20
2018-04-25T01:39:02.060Z,95.10
2018-04-25T01:41:28.311Z,95.20
2018-04-25T01:43:54.583Z,95.30
2018-04-25T01:46:23.506Z,95.20
2018-04-25T01:52:11.630Z,95.20
2018-04-25T01:54:50.101Z,95.20
2018-04-25T01:57:28.476Z,95.30
2018-04-25T02:00:06.903Z,95.40
2018-04-25T02:02:33.289Z,95.40
2018-04-25T02:04:59.530Z,95.50
2018-04-25T02:07:25.803Z,95.70
2018-04-25T02:09:52.782Z,96.10
2018-04-25T02:12:19.745Z,96.20
2018-04-25T02:14:46.022Z,96.20
2018-04-25T02:17:12.255Z,96.30
2018-04-25T02:19:38.470Z,96.40
2018-04-25T02:22:04.734Z,96.30
2018-04-25T02:24:30.965Z,96.20
2018-04-25T02:26:57.182Z,96.20
2018-04-25T02:29:23.421Z,96.20
2018-04-25T02:31:49.651Z,96.20
2018-04-25T02:34:16.642Z,96.10
2018-04-25T02:36:42.874Z,96.00
2018-04-25T02:39:09.124Z,96.00
2018-04-25T02:41:35.338Z,96.00
2018-04-25T02:44:01.615Z,96.00
2018-04-25T02:46:27.830Z,96.00
2018-04-25T02:48:54.051Z,95.90
2018-04-25T02:51:21.040Z,95.90
2018-04-25T02:53:47.260Z,95.90
2018-04-25T02:56:13.478Z,95.90
2018-04-25T02:58:40.461Z,95.80
2018-04-25T03:01:06.773Z,95.80
2018-04-25T03:03:33.132Z,95.80
2018-04-25T03:06:00.131Z,95.80
2018-04-25T03:08:26.367Z,95.70
2018-04-25T03:10:52.602Z,95.80
2018-04-25T03:13:18.829Z,95.80
2018-04-25T03:15:45.057Z,95.70
2018-04-25T03:18:12.035Z,95.80
2018-04-25T03:20:45.241Z,95.80
2018-04-25T03:23:11.708Z,95.80
2018-04-25T03:25:37.959Z,95.80
2018-04-25T03:28:04.214Z,95.90
2018-04-25T03:30:30.476Z,97.10
2018-04-25T03:32:57.454Z,98.80
2018-04-25T03:35:23.711Z,98.80
2018-04-25T03:37:49.936Z,98.30
2018-04-25T03:40:16.164Z,97.10
2018-04-25T03:42:43.131Z,95.90
2018-04-25T03:45:09.412Z,95.90
2018-04-25T03:47:35.654Z,95.20
2018-04-25T03:50:01.925Z,94.60
2018-04-25T03:52:28.164Z,94.00
2018-04-25T03:54:54.389Z,93.20
2018-04-25T03:57:20.620Z,92.70
2018-04-25T03:59:48.638Z,92.40
2018-04-25T04:02:14.873Z,92.00
2018-04-25T04:04:41.695Z,92.00
2018-04-25T04:07:07.941Z,91.60
2018-04-25T04:09:34.931Z,91.90
2018-04-25T04:12:01.916Z,91.70
2018-04-25T04:14:28.124Z,91.70
2018-04-25T04:16:54.343Z,91.80
2018-04-25T04:19:20.583Z,92.00
2018-04-25T04:21:49.001Z,92.20
2018-04-25T04:24:15.392Z,92.00
2018-04-25T04:26:42.565Z,91.60
2018-04-25T04:29:08.820Z,91.60
2018-04-25T04:31:35.041Z,91.30
2018-04-25T04:34:01.286Z,91.30
2018-04-25T04:36:27.533Z,91.60
2018-04-25T04:38:53.773Z,91.70
2018-04-25T04:41:20.009Z,91.50
2018-04-25T04:43:46.239Z,91.80
2018-04-25T04:46:12.447Z,92.30
2018-04-25T04:48:39.421Z,92.50
2018-04-25T04:51:05.646Z,92.50
2018-04-25T04:53:32.637Z,92.30
2018-04-25T04:55:58.977Z,92.30
2018-04-25T04:58:25.193Z,91.90
2018-04-25T05:00:51.433Z,92.00
2018-04-25T05:03:17.721Z,91.70
2018-04-25T05:05:44.341Z,91.50
2018-04-25T05:08:10.549Z,91.30
2018-04-25T05:10:37.522Z,91.10
2018-04-25T05:13:03.780Z,91.10
2018-04-25T05:15:29.994Z,91.00
2018-04-25T05:17:56.976Z,91.10
2018-04-25T05:20:23.259Z,91.10
2018-04-25T05:22:50.063Z,91.00
2018-04-25T05:25:16.315Z,91.10
2018-04-25T05:27:42.543Z,91.20
2018-04-25T05:30:08.793Z,91.60
2018-04-25T05:32:37.033Z,91.50
2018-04-25T05:35:03.502Z,91.50
2018-04-25T05:37:30.507Z,91.30
2018-04-25T05:39:57.495Z,91.80
2018-04-25T05:42:23.731Z,91.80
2018-04-25T05:44:49.976Z,91.70
2018-04-25T05:47:16.237Z,91.50
2018-04-25T05:49:42.475Z,91.50
2018-04-25T05:52:09.468Z,90.90
2018-04-25T05:54:36.151Z,90.80
2018-04-25T05:57:02.389Z,90.40
2018-04-25T05:59:29.045Z,90.50
2018-04-25T06:01:55.478Z,90.50
2018-04-25T06:04:22.460Z,90.50
2018-04-25T06:06:49.411Z,90.50
2018-04-25T06:09:22.653Z,90.60
2018-04-25T06:11:49.609Z,90.50
2018-04-25T06:14:15.858Z,90.50
2018-04-25T06:16:42.090Z,90.60
2018-04-25T06:19:08.325Z,90.60
2018-04-25T06:21:35.285Z,90.30
2018-04-25T06:24:02.268Z,90.20
2018-04-25T06:26:28.548Z,90.10
2018-04-25T06:28:54.730Z,90.10
2018-04-25T06:31:21.700Z,89.50
2018-04-25T06:33:47.948Z,89.50
2018-04-25T06:36:14.222Z,89.80
2018-04-25T06:38:40.471Z,89.90
2018-04-25T06:41:06.750Z,90.20
2018-04-25T06:43:33.719Z,90.40
2018-04-25T06:46:00.002Z,90.40
2018-04-25T06:48:26.215Z,90.00
2018-04-25T06:50:52.452Z,90.20
2018-04-25T06:53:18.707Z,90.10
2018-04-25T06:55:44.935Z,90.20
2018-04-25T06:58:11.149Z,90.30
2018-04-25T07:00:38.146Z,90.00
2018-04-25T07:03:04.399Z,90.00
2018-04-25T07:05:30.635Z,89.70
2018-04-25T07:07:57.128Z,89.10
2018-04-25T07:10:23.298Z,88.10
2018-04-25T07:12:49.520Z,88.00
2018-04-25T07:15:15.786Z,87.70
2018-04-25T07:17:42.022Z,87.40
2018-04-25T07:20:08.246Z,87.20
2018-04-25T07:22:34.523Z,85.90
2018-04-25T07:25:00.783Z,85.70
2018-04-25T07:27:27.041Z,85.30
2018-04-25T07:29:53.289Z,85.20
2018-04-25T07:32:20.283Z,84.40
2018-04-25T07:34:46.497Z,83.70
2018-04-25T07:37:12.737Z,83.70
2018-04-25T07:39:39.691Z,80.20
2018-04-25T07:42:06.666Z,78.80
2018-04-25T07:44:32.925Z,78.80
2018-04-25T07:46:59.162Z,77.90
2018-04-25T07:49:25.433Z,77.30
2018-04-25T07:51:51.662Z,76.20
2018-04-25T07:54:17.901Z,75.70
2018-04-25T07:56:44.134Z,74.10
2018-04-25T07:59:10.410Z,73.80
2018-04-25T08:01:36.661Z,74.30
2018-04-25T08:04:02.912Z,74.00
2018-04-25T08:06:29.876Z,71.90
2018-04-25T08:08:56.996Z,71.20
2018-04-25T08:11:23.230Z,71.10
2018-04-25T08:14:01.858Z,69.90
2018-04-25T08:16:40.378Z,69.90
2018-04-25T08:19:18.830Z,69.40
2018-04-25T08:21:45.060Z,69.90
2018-04-25T08:24:11.263Z,69.50
2018-04-25T08:26:37.496Z,68.80
2018-04-25T08:29:03.718Z,68.40
2018-04-25T08:31:30.691Z,68.10
2018-04-25T08:33:57.694Z,69.00
2018-04-25T08:36:23.943Z,69.00
2018-04-25T08:38:50.172Z,68.50
2018-04-25T08:41:16.417Z,68.00
2018-04-25T08:43:42.636Z,68.30
2018-04-25T08:46:08.880Z,67.90
2018-04-25T08:48:35.130Z,68.40
2018-04-25T08:51:01.350Z,68.30
2018-04-25T08:53:27.581Z,68.40
2018-04-25T08:55:53.830Z,68.90
2018-04-25T08:58:20.090Z,68.30
2018-04-25T09:00:46.322Z,67.90
2018-04-25T09:03:12.572Z,67.60
2018-04-25T09:05:38.846Z,67.10
2018-04-25T09:08:05.076Z,67.40
2018-04-25T09:10:31.653Z,66.90
2018-04-25T09:12:58.610Z,66.70
2018-04-25T09:15:25.583Z,66.70
2018-04-25T09:17:51.879Z,67.40
2018-04-25T09:20:18.142Z,66.10
2018-04-25T09:22:44.380Z,65.90
2018-04-25T09:25:10.645Z,66.00
2018-04-25T09:27:37.650Z,64.40
2018-04-25T09:30:03.900Z,64.40
2018-04-25T09:32:30.136Z,63.20
2018-04-25T09:34:57.102Z,62.60
2018-04-25T09:37:23.342Z,62.60
2018-04-25T09:39:49.586Z,63.40
2018-04-25T09:42:15.815Z,63.50
2018-04-25T09:44:42.019Z,63.20
2018-04-25T09:47:08.372Z,62.30
2018-04-25T09:49:34.593Z,62.90
2018-04-25T09:52:00.833Z,62.00
2018-04-25T09:54:27.108Z,59.10
2018-04-25T09:56:53.334Z,59.40
2018-04-25T09:59:19.581Z,59.60
2018-04-25T10:01:51.757Z,58.90
2018-04-25T10:04:18.023Z,59.20
2018-04-25T10:06:44.257Z,58.50
2018-04-25T10:09:10.494Z,56.90
2018-04-25T10:11:36.867Z,55.80
2018-04-25T10:14:03.091Z,55.30
2018-04-25T10:16:29.313Z,55.00
2018-04-25T10:18:55.517Z,55.00
2018-04-25T10:21:21.753Z,54.00
2018-04-25T10:23:48.761Z,52.80
2018-04-25T10:26:14.995Z,52.80
2018-04-25T10:28:41.199Z,52.10
2018-04-25T10:31:07.459Z,51.90
2018-04-25T10:33:33.670Z,51.90
2018-04-25T10:36:00.637Z,52.10
2018-04-25T10:38:26.887Z,52.10
2018-04-25T10:40:53.098Z,52.80
2018-04-25T10:43:20.062Z,51.80
2018-04-25T10:45:46.308Z,51.70
2018-04-25T10:48:13.293Z,50.50
2018-04-25T10:50:39.520Z,50.50
2018-04-25T10:53:05.831Z,50.00
2018-04-25T10:55:32.037Z,49.80
2018-04-25T10:57:58.275Z,48.60
2018-04-25T11:00:24.508Z,47.80
2018-04-25T11:02:50.811Z,48.00
2018-04-25T11:05:17.776Z,48.30
2018-04-25T11:07:44.763Z,48.20
2018-04-25T11:10:10.976Z,48.20
2018-04-25T11:12:38.211Z,48.70
2018-04-25T11:15:04.467Z,48.60
2018-04-25T11:17:31.470Z,47.50
2018-04-25T11:19:57.687Z,47.40
2018-04-25T11:22:23.926Z,46.80
2018-04-25T11:24:50.159Z,45.30
2018-04-25T11:27:16.387Z,45.30
2018-04-25T11:29:42.830Z,44.50
2018-04-25T11:32:08.996Z,43.40
2018-04-25T11:34:35.222Z,43.60
2018-04-25T11:37:01.475Z,43.10
2018-04-25T11:39:27.689Z,43.40
2018-04-25T11:41:53.903Z,43.30
2018-04-25T11:44:20.145Z,43.00
2018-04-25T11:46:46.386Z,43.90
2018-04-25T11:49:12.642Z,44.10
2018-04-25T11:51:38.902Z,45.60
2018-04-25T11:54:05.124Z,45.40
2018-04-25T11:56:31.366Z,45.90
2018-04-25T11:58:58.361Z,46.20
2018-04-25T12:01:24.574Z,46.10
2018-04-25T12:03:51.544Z,46.70
2018-04-25T12:06:17.774Z,46.60
2018-04-25T12:08:44.747Z,42.60
2018-04-25T12:11:11.005Z,42.60
2018-04-25T12:13:37.428Z,40.90
2018-04-25T12:16:03.676Z,39.00
2018-04-25T12:18:29.893Z,39.00
2018-04-25T12:20:56.130Z,38.90
2018-04-25T12:23:23.106Z,38.70
2018-04-25T12:25:49.328Z,38.70
2018-04-25T12:28:15.555Z,39.60
2018-04-25T12:30:41.772Z,39.40
2018-04-25T12:33:08.005Z,40.60
2018-04-25T12:35:34.276Z,41.70
2018-04-25T12:38:01.270Z,41.80
2018-04-25T12:40:27.490Z,41.80
2018-04-25T12:42:53.725Z,41.30
2018-04-25T12:45:19.946Z,41.10
2018-04-25T12:47:46.184Z,40.40
2018-04-25T12:50:12.454Z,39.30
2018-04-25T12:52:39.409Z,36.40
2018-04-25T12:55:06.388Z,35.40
2018-04-25T12:57:32.645Z,35.40
2018-04-25T12:59:58.889Z,35.10
2018-04-25T13:02:25.114Z,34.60
2018-04-25T13:04:51.380Z,34.60
2018-04-25T13:07:17.607Z,35.00
2018-04-25T13:09:43.835Z,35.70
2018-04-25T13:12:10.096Z,34.50
2018-04-25T13:14:36.923Z,33.50
2018-04-25T13:17:03.161Z,33.90
2018-04-25T13:19:29.413Z,34.20
2018-04-25T13:21:55.611Z,32.90
2018-04-25T13:24:21.845Z,33.10
2018-04-25T13:26:48.111Z,33.10
2018-04-25T13:29:15.122Z,32.80
2018-04-25T13:31:41.343Z,32.70
2018-04-25T13:34:07.610Z,33.20
2018-04-25T13:36:33.829Z,32.10
2018-04-25T13:39:00.075Z,33.20
2018-04-25T13:41:26.364Z,34.10
2018-04-25T13:43:52.591Z,33.50
2018-04-25T13:46:18.847Z,33.80
2018-04-25T13:48:45.813Z,33.90
2018-04-25T13:51:12.783Z,34.20
2018-04-25T13:53:39.017Z,34.20
2018-04-25T13:56:06.012Z,33.10
2018-04-25T13:58:32.249Z,33.00
2018-04-25T14:00:58.457Z,33.60
2018-04-25T14:03:24.736Z,34.20
2018-04-25T14:05:50.956Z,33.30
2018-04-25T14:08:17.170Z,33.30
2018-04-25T14:10:44.196Z,33.00
2018-04-25T14:13:10.433Z,33.10
2018-04-25T14:15:37.084Z,33.10
2018-04-25T14:18:03.349Z,32.50
2018-04-25T14:20:29.609Z,32.40
2018-04-25T14:22:55.839Z,31.50
2018-04-25T14:25:22.113Z,31.00
2018-04-25T14:27:48.331Z,31.20
2018-04-25T14:30:14.558Z,30.50
2018-04-25T14:32:40.829Z,30.40
2018-04-25T14:35:07.053Z,30.00
2018-04-25T14:37:33.269Z,29.50
2018-04-25T14:39:59.499Z,29.40
2018-04-25T14:42:25.725Z,29.70
2018-04-25T14:44:51.963Z,30.10
2018-04-25T14:47:18.266Z,31.20
2018-04-25T14:49:44.530Z,32.10
2018-04-25T14:52:10.784Z,32.00
2018-04-25T14:54:37.163Z,32.70
2018-04-25T14:57:03.328Z,32.80
2018-04-25T14:59:29.554Z,32.30
2018-04-25T15:01:55.782Z,31.90
2018-04-25T15:04:22.012Z,32.40
2018-04-25T15:06:48.234Z,32.40
2018-04-25T15:09:14.460Z,32.10
2018-04-25T15:11:40.697Z,31.50
2018-04-25T15:14:06.927Z,32.20
2018-04-25T15:16:33.434Z,32.30
2018-04-25T15:19:00.393Z,32.10
2018-04-25T15:21:26.625Z,32.10
2018-04-25T15:23:52.899Z,32.40
2018-04-25T15:26:19.123Z,32.30
2018-04-25T15:28:46.090Z,32.40
2018-04-25T15:31:12.329Z,32.40
2018-04-25T15:33:38.562Z,33.10
2018-04-25T15:36:04.820Z,33.00
2018-04-25T15:38:31.106Z,33.60
2018-04-25T15:40:57.323Z,33.50
2018-04-25T15:43:23.554Z,33.40
2018-04-25T15:45:49.826Z,33.60
2018-04-25T15:48:16.086Z,34.00
2018-04-25T15:50:43.049Z,34.30
2018-04-25T15:53:10.093Z,33.90
2018-04-25T15:55:36.315Z,33.90
2018-04-25T15:58:02.545Z,33.60
2018-04-25T16:00:28.791Z,34.20
2018-04-25T16:02:55.014Z,34.30
2018-04-25T16:05:21.246Z,34.60
2018-04-25T16:07:47.489Z,34.10
2018-04-25T16:10:13.761Z,33.90
2018-04-25T16:12:39.986Z,34.30
2018-04-25T16:15:06.273Z,34.70
2018-04-25T16:17:33.386Z,34.30
2018-04-25T16:19:59.612Z,34.30
2018-04-25T16:22:25.847Z,34.50
2018-04-25T16:24:52.084Z,35.20
2018-04-25T16:27:18.309Z,35.70
2018-04-25T16:29:45.271Z,35.60
2018-04-25T16:32:11.497Z,35.50
2018-04-25T16:34:38.495Z,35.90
2018-04-25T16:37:04.769Z,35.90
2018-04-25T16:39:31.000Z,36.00
2018-04-25T16:41:57.221Z,36.00
2018-04-25T16:44:23.454Z,36.40
2018-04-25T16:46:49.681Z,36.70
2018-04-25T16:49:15.961Z,36.80
2018-04-25T16:51:42.235Z,37.20
2018-04-25T16:54:09.211Z,38.60
2018-04-25T16:56:35.423Z,38.00
2018-04-25T16:59:01.719Z,38.70
2018-04-25T17:01:27.961Z,39.30
2018-04-25T17:03:54.169Z,39.40
2018-04-25T17:06:20.425Z,39.50
2018-04-25T17:08:46.642Z,40.00
2018-04-25T17:11:13.597Z,40.80
2018-04-25T17:13:39.869Z,40.80
2018-04-25T17:16:06.111Z,41.00
2018-04-25T17:18:32.585Z,41.50
2018-04-25T17:20:58.837Z,42.30
2018-04-25T17:23:25.063Z,42.60
2018-04-25T17:25:51.299Z,43.20
2018-04-25T17:28:17.569Z,43.70
2018-04-25T17:30:43.811Z,44.50
2018-04-25T17:33:10.060Z,44.80
2018-04-25T17:35:37.026Z,45.90
2018-04-25T17:38:03.273Z,45.40
2018-04-25T17:40:29.501Z,45.60
2018-04-25T17:42:55.829Z,46.00
2018-04-25T17:45:22.008Z,46.20
2018-04-25T17:47:48.239Z,46.20
2018-04-25T17:50:14.509Z,46.40
2018-04-25T17:52:40.777Z,46.90
2018-04-25T17:55:07.023Z,46.90
2018-04-25T17:57:33.288Z,47.10
2018-04-25T18:00:00.254Z,47.50
2018-04-25T18:02:27.260Z,47.60
2018-04-25T18:04:53.538Z,47.60
2018-04-25T18:07:19.802Z,47.80
2018-04-25T18:09:46.015Z,47.80
2018-04-25T18:12:12.233Z,48.10
2018-04-25T18:14:38.485Z,48.40
2018-04-25T18:17:04.799Z,48.70
2018-04-25T18:19:31.397Z,48.90
2018-04-25T18:21:58.397Z,49.20
2018-04-25T18:24:24.623Z,49.20
2018-04-25T18:26:50.917Z,49.70
2018-04-25T18:29:17.153Z,49.60
2018-04-25T18:31:43.394Z,49.50
2018-04-25T18:34:09.665Z,49.40
2018-04-25T18:36:36.657Z,50.10
2018-04-25T18:39:02.981Z,50.00
2018-04-25T18:41:29.282Z,50.30
2018-04-25T18:43:55.536Z,50.70
2018-04-25T18:46:21.756Z,50.70
2018-04-25T18:48:48.000Z,51.10
2018-04-25T18:51:14.246Z,51.60
2018-04-25T18:53:40.488Z,51.70
2018-04-25T18:56:06.749Z,51.90
2018-04-25T18:58:33.740Z,52.50
2018-04-25T19:00:59.983Z,52.40
2018-04-25T19:03:26.238Z,52.60
2018-04-25T19:05:52.514Z,52.70
2018-04-25T19:08:18.756Z,53.00
2018-04-25T19:10:45.037Z,53.30
2018-04-25T19:13:11.275Z,53.50
2018-04-25T19:15:37.514Z,53.90
2018-04-25T19:18:03.822Z,54.00
2018-04-25T19:20:30.192Z,54.10
2018-04-25T19:22:56.429Z,54.80
2018-04-25T19:25:23.420Z,55.60
2018-04-25T19:27:49.640Z,55.50
2018-04-25T19:30:15.865Z,56.00
2018-04-25T19:32:42.117Z,56.50
2018-04-25T19:35:08.406Z,56.80
2018-04-25T19:37:34.665Z,56.90
2018-04-25T19:40:01.703Z,57.50
2018-04-25T19:42:28.221Z,57.30
2018-04-25T19:44:54.497Z,57.70
2018-04-25T19:47:20.736Z,57.80
2018-04-25T19:49:47.155Z,57.70
2018-04-25T19:52:13.403Z,58.10
2018-04-25T19:54:39.642Z,58.30
2018-04-25T19:57:05.927Z,58.20
2018-04-25T19:59:32.160Z,58.30
2018-04-25T20:01:58.458Z,58.50
2018-04-25T20:04:24.692Z,58.50
2018-04-25T20:06:50.936Z,58.70
2018-04-25T20:09:17.173Z,59.00
2018-04-25T20:11:43.378Z,59.10
2018-04-25T20:14:09.624Z,59.20
2018-04-25T20:16:37.208Z,59.50
2018-04-25T20:19:03.426Z,59.40
2018-04-25T20:21:29.837Z,59.70
2018-04-25T20:23:56.083Z,60.00
2018-04-25T20:26:22.453Z,60.10
2018-04-25T20:28:48.720Z,60.90
2018-04-25T20:31:14.973Z,61.70
2018-04-25T20:33:41.187Z,62.00
2018-04-25T20:36:07.428Z,62.60
2018-04-25T20:38:34.435Z,63.20
2018-04-25T20:41:00.690Z,63.20
2018-04-25T20:43:26.903Z,63.40
2018-04-25T20:45:53.130Z,63.90
2018-04-25T20:48:19.339Z,64.30
2018-04-25T20:50:45.675Z,65.00
2018-04-25T20:53:11.904Z,65.30
2018-04-25T20:55:38.168Z,65.90
2018-04-25T20:58:05.176Z,67.70
2018-04-25T21:00:31.425Z,67.60
2018-04-25T21:02:57.645Z,68.60
2018-04-25T21:05:23.856Z,69.70
2018-04-25T21:07:50.841Z,71.70
2018-04-25T21:10:17.065Z,71.60
2018-04-25T21:12:43.299Z,71.50
2018-04-25T21:15:09.545Z,72.60
2018-04-25T21:17:35.805Z,74.30
2018-04-25T21:20:02.054Z,76.10
2018-04-25T21:22:28.458Z,79.30
2018-04-25T21:24:55.466Z,82.90
2018-04-25T21:27:22.388Z,84.00
2018-04-25T21:29:48.628Z,84.00
2018-04-25T21:32:14.828Z,85.10
2018-04-25T21:34:41.131Z,87.00
2018-04-25T21:37:07.374Z,88.50
2018-04-25T21:39:33.602Z,89.80
2018-04-25T21:41:59.818Z,90.50
2018-04-25T21:44:26.816Z,91.10
2018-04-25T21:46:53.055Z,91.10
2018-04-25T21:49:19.262Z,91.30
2018-04-25T21:51:46.220Z,91.80
2018-04-25T21:54:12.437Z,91.80
2018-04-25T21:56:38.657Z,92.20
2018-04-25T21:59:04.899Z,92.60
2018-04-25T22:01:31.129Z,92.80
2018-04-25T22:03:57.357Z,93.10
2018-04-25T22:06:23.640Z,93.10
2018-04-25T22:08:49.881Z,93.10
2018-04-25T22:11:16.097Z,93.20
2018-04-25T22:13:42.378Z,93.60
2018-04-25T22:16:09.349Z,93.30
2018-04-25T22:18:35.570Z,93.30
2018-04-25T22:21:02.546Z,93.40
2018-04-25T22:23:28.992Z,93.30
2018-04-25T22:25:55.199Z,93.20
2018-04-25T22:28:21.464Z,93.20
2018-04-25T22:30:47.685Z,93.50
2018-04-25T22:33:13.890Z,93.80
2018-04-25T22:35:40.142Z,94.10
2018-04-25T22:38:06.364Z,94.50
2018-04-25T22:40:32.606Z,94.70
2018-04-25T22:42:58.875Z,94.70
2018-04-25T22:45:25.103Z,94.90
2018-04-25T22:47:51.328Z,94.90
2018-04-25T22:50:17.597Z,95.00
2018-04-25T22:52:43.821Z,95.00
2018-04-25T22:55:10.034Z,94.80
2018-04-25T22:57:36.269Z,94.70
2018-04-25T23:00:02.503Z,94.80
2018-04-25T23:02:28.737Z,95.00
2018-04-25T23:04:55.014Z,95.20
2018-04-25T23:07:21.263Z,95.30
2018-04-25T23:09:47.466Z,95.30
2018-04-25T23:12:13.685Z,95.50
2018-04-25T23:14:40.641Z,94.70
2018-04-25T23:17:07.622Z,94.90
2018-04-25T23:19:33.854Z,94.80
2018-04-25T23:22:00.062Z,94.60
2018-04-25T23:24:26.596Z,94.00
2018-04-25T23:26:52.828Z,93.10
2018-04-25T23:29:19.086Z,92.20
2018-04-25T23:31:45.300Z,91.20
2018-04-25T23:34:11.631Z,90.70
2018-04-25T23:36:37.853Z,90.30
2018-04-25T23:39:04.951Z,90.10
2018-04-25T23:41:31.180Z,89.70
2018-04-25T23:43:57.400Z,89.90
2018-04-25T23:46:23.622Z,90.00
2018-04-25T23:48:49.938Z,90.30
2018-04-25T23:51:16.148Z,90.40
2018-04-25T23:53:42.382Z,90.70
2018-04-25T23:56:08.652Z,91.00
2018-04-25T23:58:34.872Z,91.40
